Aérodrome :







RETROUVEZ-NOUS SUR...

 
LOGIN :

S'inscrire | Disclaimer

   EN    FR    IT 

 









Légende :    VFR   VFR Marginal   IFR   IFR Intensif   IFR Très Intensif
Visi : 
Plafond : 
>= 8 km
>= 3000ft
5 à 8 km
1000 à 3000 ft
1500m à 5 km
500 à 1000 ft
800 à 1500m
200 à 500 ft
< 800m
< 200 ft
Symboles :   Orages  Brouillard  Fortes neiges  Fortes précipitations  Vent > 20 kt






- Altitude de l'aérodrome : 14 ft
- Code IATA : UVF


TLPL - Hewanorra Int.

DERNIER METAR :
  • 031700Z 11012KT 9999 BKN030 31/23 Q1013 NOSIG

METARs EXPIRÉS :
  • 031600Z 09011KT 9999 FEW030 31/23 Q1014 NOSIG
  • 031500Z 09011KT 9999 FEW030 30/23 Q1014 NOSIG

TAF TAF TLPL
Valide du 03 à 12h jusqu'au 04 à 12h UTC


031404Z 0312/0412 12012KT 9999 SCT024



MET'MAP, la Météo Aéronautique d'un coup d'oeil ! - Copyright ORBIFLY Décembre 2007 - Disclaimer

ORBIFLY MET'MAP TEAM :

Programmation & Développement : Alexandra Zaïnal
Sur une idée originale de : Baudouin d'Aumeries
Assistance à la programmation : Marc-Olivier Méhu
Soutien technique & logistique : Manuel Goepfert

Contact : metmap@orbifly.com




SOURCES & CREDITS :

   NOAA